Time;durP1;ratioP1;P1;durP2;ratioP2;P2;SDS_P1;SDS_P2;PMS_P1;PMS_P2;Temp;Humidity;BMP_temperature;BMP_pressure;BME280_temperature;BME280_humidity;BME280_pressure;Samples;Min_cycle;Max_cycle;Signal;HPM_P1;HPM_P2
2021/01/18 00:01:59;;;;;;;7.88;2.15;;;4.80;99.90;;;;;;4922620;29;20031;-96
2021/01/18 00:04:25;;;;;;;12.65;2.45;;;4.80;99.90;;;;;;4941681;29;20027;-96
2021/01/18 00:06:51;;;;;;;16.60;1.90;;;4.80;99.90;;;;;;4925924;29;20064;-95
2021/01/18 00:09:16;;;;;;;11.52;1.80;;;4.70;99.90;;;;;;4942018;29;20489;-95
2021/01/18 00:11:47;;;;;;;5.05;1.50;;;4.80;99.90;;;;;;4940739;29;20039;-95
2021/01/18 00:14:12;;;;;;;7.88;1.67;;;4.80;99.90;;;;;;4940115;29;20032;-95
2021/01/18 00:16:38;;;;;;;11.23;2.47;;;4.80;99.90;;;;;;4941007;29;20043;-95
2021/01/18 00:19:04;;;;;;;14.07;2.10;;;4.80;99.90;;;;;;4940991;29;20028;-95
2021/01/18 00:21:31;;;;;;;12.27;2.25;;;4.80;99.90;;;;;;4942881;29;20024;-96
2021/01/18 00:23:57;;;;;;;15.63;2.28;;;4.80;99.90;;;;;;4926913;29;20042;-96
2021/01/18 00:26:23;;;;;;;10.38;2.67;;;4.80;99.90;;;;;;4942594;29;20027;-95
2021/01/18 00:28:49;;;;;;;16.50;2.75;;;4.80;99.90;;;;;;4943388;29;20031;-96
2021/01/18 00:31:19;;;;;;;11.77;2.95;;;4.80;99.90;;;;;;4943812;29;20020;-96
2021/01/18 00:33:47;;;;;;;13.70;2.03;;;4.80;99.90;;;;;;4928721;29;20544;-96
2021/01/18 00:36:14;;;;;;;14.13;2.60;;;4.80;99.90;;;;;;4943184;29;20119;-96
2021/01/18 00:38:42;;;;;;;8.90;2.30;;;4.80;99.90;;;;;;4924872;29;20052;-96
2021/01/18 00:41:08;;;;;;;15.75;3.70;;;4.80;99.90;;;;;;4951480;29;20126;-96
2021/01/18 00:43:34;;;;;;;9.35;2.40;;;4.80;99.90;;;;;;4928870;29;20032;-96
2021/01/18 00:46:00;;;;;;;14.90;2.42;;;4.80;99.90;;;;;;4945082;29;20039;-96
2021/01/18 00:48:29;;;;;;;8.88;1.98;;;4.80;99.90;;;;;;4929625;29;20031;-96
2021/01/18 00:50:55;;;;;;;14.77;2.22;;;4.80;99.90;;;;;;4946627;29;20091;-95
2021/01/18 00:53:23;;;;;;;9.10;2.05;;;4.80;99.90;;;;;;4948135;29;20055;-95
2021/01/18 00:55:49;;;;;;;11.38;2.10;;;4.80;99.90;;;;;;4928658;29;20024;-96
2021/01/18 00:58:15;;;;;;;15.13;2.30;;;4.80;99.90;;;;;;4946162;29;20044;-96
2021/01/18 01:00:41;;;;;;;14.40;3.97;;;4.80;99.90;;;;;;4942056;29;20027;-94
2021/01/18 01:03:10;;;;;;;9.10;2.05;;;4.80;99.90;;;;;;4942739;29;20027;-96
2021/01/18 01:05:36;;;;;;;12.52;2.47;;;4.80;99.90;;;;;;4946028;29;20559;-94
2021/01/18 01:08:01;;;;;;;8.27;2.40;;;4.70;99.90;;;;;;4941355;29;20122;-96
2021/01/18 01:10:32;;;;;;;10.50;2.33;;;4.70;99.90;;;;;;4953729;28;20031;-94
2021/01/18 01:13:02;;;;;;;7.35;2.17;;;4.70;99.90;;;;;;4967274;29;20023;-93
2021/01/18 01:15:30;;;;;;;12.75;3.20;;;4.70;99.90;;;;;;4966374;28;20121;-96
2021/01/18 01:17:58;;;;;;;16.38;3.13;;;4.70;99.90;;;;;;4970021;29;20071;-95
2021/01/18 01:20:27;;;;;;;10.18;2.70;;;4.60;99.90;;;;;;4965904;29;20024;-96
2021/01/18 01:22:55;;;;;;;10.10;3.38;;;4.70;99.90;;;;;;4963434;29;20043;-96
2021/01/18 01:25:23;;;;;;;10.98;2.55;;;4.60;99.90;;;;;;4962969;29;20027;-96
2021/01/18 01:27:49;;;;;;;13.80;2.72;;;4.60;99.90;;;;;;4958701;29;20477;-94
2021/01/18 01:30:20;;;;;;;10.05;2.67;;;4.60;99.90;;;;;;4957203;29;20035;-96
2021/01/18 01:32:48;;;;;;;13.73;2.30;;;4.60;99.90;;;;;;4958046;29;20023;-96
2021/01/18 01:35:15;;;;;;;12.18;2.65;;;4.60;99.90;;;;;;4959094;29;20031;-95
2021/01/18 01:37:41;;;;;;;11.98;2.65;;;4.60;99.90;;;;;;4957984;29;20130;-95
2021/01/18 01:40:09;;;;;;;7.70;2.20;;;4.60;99.90;;;;;;4957887;29;20062;-96
2021/01/18 01:42:35;;;;;;;8.13;2.42;;;4.60;99.90;;;;;;4957975;29;20126;-96
2021/01/18 01:45:02;;;;;;;12.85;4.10;;;4.60;99.90;;;;;;4960131;29;20024;-96
2021/01/18 01:47:37;;;;;;;9.23;2.25;;;4.60;99.90;;;;;;4961144;29;20032;-96
2021/01/18 01:50:07;;;;;;;10.10;2.10;;;4.60;99.90;;;;;;4962014;29;20040;-96
2021/01/18 01:52:36;;;;;;;9.88;2.42;;;4.60;99.90;;;;;;4961729;29;20051;-96
2021/01/18 01:55:08;;;;;;;8.85;1.70;;;4.60;99.90;;;;;;4970396;29;20054;-95
2021/01/18 01:57:38;;;;;;;15.55;2.55;;;4.60;99.90;;;;;;4973719;29;20074;-96
2021/01/18 02:00:04;;;;;;;14.38;2.20;;;4.50;99.90;;;;;;4980380;28;20031;-94
2021/01/18 02:02:30;;;;;;;9.55;2.10;;;4.60;99.90;;;;;;4980624;28;20054;-96
2021/01/18 02:04:56;;;;;;;16.45;2.38;;;4.60;99.90;;;;;;4966753;28;20481;-94
2021/01/18 02:07:24;;;;;;;16.17;1.92;;;4.60;99.90;;;;;;4961890;29;20159;-96
2021/01/18 02:09:50;;;;;;;8.88;2.22;;;4.60;99.90;;;;;;4962555;29;20031;-95
2021/01/18 02:12:16;;;;;;;11.25;2.17;;;4.60;99.90;;;;;;4961561;29;20027;-96
2021/01/18 02:15:20;;;;;;;13.38;2.45;;;4.60;99.90;;;;;;4961478;29;20038;-95
2021/01/18 02:18:23;;;;;;;5.57;1.08;;;4.60;99.90;;;;;;4962641;29;20063;-94
2021/01/18 02:21:17;;;;;;;9.27;1.92;;;4.60;99.90;;;;;;4961207;29;20023;-96
2021/01/18 02:24:02;;;;;;;7.00;1.42;;;4.60;99.90;;;;;;4961136;29;20043;-96
2021/01/18 02:26:30;;;;;;;9.90;1.50;;;4.60;99.90;;;;;;4960383;28;20035;-96
2021/01/18 02:29:12;;;;;;;6.70;1.70;;;4.60;99.90;;;;;;4960504;29;20039;-96
2021/01/18 02:32:15;;;;;;;7.20;1.65;;;4.60;99.90;;;;;;4961253;29;20024;-96
2021/01/18 02:35:00;;;;;;;8.02;1.50;;;4.60;99.90;;;;;;4963099;29;20058;-96
2021/01/18 02:37:39;;;;;;;6.43;1.52;;;4.60;99.90;;;;;;4961333;28;20445;-96
2021/01/18 02:40:11;;;;;;;7.07;2.38;;;4.70;99.90;;;;;;4961472;29;20143;-95
2021/01/18 02:42:45;;;;;;;10.18;1.95;;;4.70;99.90;;;;;;4958792;29;20041;-96
2021/01/18 02:45:12;;;;;;;7.40;1.33;;;4.70;99.90;;;;;;4959824;29;20027;-96
2021/01/18 02:47:40;;;;;;;3.58;1.40;;;4.70;99.90;;;;;;4962834;29;20033;-95
2021/01/18 02:50:07;;;;;;;8.93;1.55;;;4.70;99.90;;;;;;4969205;29;20023;-95
2021/01/18 02:52:39;;;;;;;4.70;1.60;;;4.70;99.90;;;;;;4968386;29;20055;-96
2021/01/18 02:55:06;;;;;;;4.18;1.60;;;4.70;99.90;;;;;;4961981;29;20039;-96
2021/01/18 02:57:35;;;;;;;8.00;2.53;;;4.70;99.90;;;;;;4961444;29;20122;-96
2021/01/18 03:00:11;;;;;;;9.60;2.10;;;4.80;99.90;;;;;;4958910;29;20122;-96
2021/01/18 03:02:37;;;;;;;5.82;2.13;;;4.70;99.90;;;;;;4956116;29;20027;-95
2021/01/18 03:05:20;;;;;;;7.32;2.03;;;4.70;99.90;;;;;;4957250;28;20081;-95
2021/01/18 03:07:54;;;;;;;8.80;2.33;;;4.70;99.90;;;;;;4956781;29;20027;-95
2021/01/18 03:10:37;;;;;;;8.43;2.00;;;4.70;99.90;;;;;;4955125;28;20039;-95
2021/01/18 03:13:26;;;;;;;6.38;2.50;;;4.70;99.90;;;;;;4936665;29;20055;-95
2021/01/18 03:16:10;;;;;;;11.27;2.40;;;4.70;99.90;;;;;;4936248;29;20027;-95
2021/01/18 03:18:39;;;;;;;4.68;2.03;;;4.70;99.90;;;;;;4921013;29;20043;-94
2021/01/18 03:21:05;;;;;;;10.10;2.70;;;4.70;99.90;;;;;;4937906;29;20020;-96
2021/01/18 03:23:31;;;;;;;8.20;2.40;;;4.70;99.90;;;;;;4936761;29;20051;-94
2021/01/18 03:26:00;;;;;;;8.43;2.92;;;4.70;99.90;;;;;;4936641;29;20028;-96
2021/01/18 03:28:26;;;;;;;10.57;2.85;;;4.70;99.90;;;;;;4937069;29;20028;-96
2021/01/18 03:30:52;;;;;;;9.68;2.40;;;4.70;99.90;;;;;;4939289;29;20039;-93
2021/01/18 03:33:24;;;;;;;9.38;3.05;;;4.70;99.90;;;;;;4939300;29;20024;-96
2021/01/18 03:35:54;;;;;;;9.30;2.33;;;4.60;99.90;;;;;;4929187;29;20060;-96
2021/01/18 03:38:23;;;;;;;12.27;2.10;;;4.60;99.90;;;;;;4945066;29;20041;-96
2021/01/18 03:40:53;;;;;;;9.05;2.30;;;4.60;99.90;;;;;;4912398;29;20032;-96
2021/01/18 03:43:21;;;;;;;4.18;2.03;;;4.60;99.90;;;;;;4942382;29;20059;-96
2021/01/18 03:45:48;;;;;;;6.82;2.30;;;4.60;99.90;;;;;;4928889;29;20032;-96
2021/01/18 03:48:13;;;;;;;6.90;1.98;;;4.50;99.90;;;;;;4939912;29;20028;-95
2021/01/18 03:50:40;;;;;;;5.32;2.00;;;4.50;99.90;;;;;;4939151;29;20162;-96
2021/01/18 03:53:07;;;;;;;9.70;2.08;;;4.50;99.90;;;;;;4937059;29;20055;-96
2021/01/18 03:55:33;;;;;;;10.05;2.80;;;4.50;99.90;;;;;;4937332;29;20171;-95
2021/01/18 03:57:59;;;;;;;15.95;3.50;;;4.50;99.90;;;;;;4936899;29;20107;-96
2021/01/18 04:00:30;;;;;;;10.80;1.90;;;4.50;99.90;;;;;;4924920;29;20023;-96
2021/01/18 04:02:57;;;;;;;16.88;3.00;;;4.50;99.90;;;;;;4926184;29;20040;-96
2021/01/18 04:05:25;;;;;;;7.18;2.00;;;4.50;99.90;;;;;;4942822;29;20059;-96
2021/01/18 04:07:52;;;;;;;8.55;1.65;;;4.50;99.90;;;;;;4924210;29;20493;-96
2021/01/18 04:10:21;;;;;;;6.90;1.98;;;4.50;99.90;;;;;;4939289;29;20051;-95
2021/01/18 04:12:48;;;;;;;3.88;1.50;;;4.50;99.90;;;;;;4939665;29;20552;-95
2021/01/18 04:15:16;;;;;;;9.25;2.10;;;4.50;99.90;;;;;;4936954;29;20028;-96
2021/01/18 04:17:43;;;;;;;6.68;1.73;;;4.40;99.90;;;;;;4921578;29;20043;-93
2021/01/18 04:20:10;;;;;;;9.50;2.00;;;4.40;99.90;;;;;;4936427;29;20034;-95
2021/01/18 04:22:43;;;;;;;7.18;1.88;;;4.40;99.90;;;;;;4921979;29;20030;-96
2021/01/18 04:25:10;;;;;;;8.98;2.15;;;4.40;99.90;;;;;;4942025;29;20036;-94
2021/01/18 04:27:35;;;;;;;6.50;2.05;;;4.40;99.90;;;;;;4927233;29;20091;-95
2021/01/18 04:30:01;;;;;;;3.95;1.77;;;4.40;99.90;;;;;;4957471;29;20036;-95
2021/01/18 04:32:26;;;;;;;7.18;1.40;;;4.40;99.90;;;;;;4956807;29;20094;-96
2021/01/18 04:34:52;;;;;;;3.75;1.38;;;4.40;99.90;;;;;;4954055;29;20126;-96
2021/01/18 04:37:18;;;;;;;8.38;1.55;;;4.40;99.90;;;;;;4955751;29;20032;-96
2021/01/18 04:39:45;;;;;;;7.70;1.55;;;4.40;99.90;;;;;;4940027;29;20027;-96
2021/01/18 04:42:12;;;;;;;8.23;1.55;;;4.40;99.90;;;;;;4940436;29;20481;-96
2021/01/18 04:44:39;;;;;;;8.30;1.83;;;4.40;99.90;;;;;;4956433;29;20031;-96
2021/01/18 04:47:10;;;;;;;3.65;1.35;;;4.40;99.90;;;;;;4961880;29;20055;-96
2021/01/18 04:49:42;;;;;;;6.05;1.20;;;4.40;99.90;;;;;;4958502;28;20055;-96
2021/01/18 04:52:16;;;;;;;4.30;1.33;;;4.40;99.90;;;;;;4959528;29;20039;-96
2021/01/18 04:54:53;;;;;;;3.65;1.20;;;4.40;99.90;;;;;;4959803;29;20031;-96
2021/01/18 04:57:26;;;;;;;7.45;1.70;;;4.50;99.90;;;;;;4961008;29;20031;-95
2021/01/18 05:00:01;;;;;;;3.15;1.30;;;4.50;99.90;;;;;;4944353;29;20045;-96
2021/01/18 05:02:46;;;;;;;2.83;1.17;;;4.50;99.90;;;;;;4961206;29;20055;-95
2021/01/18 05:05:28;;;;;;;10.20;1.60;;;4.50;99.90;;;;;;4972962;29;20039;-96
2021/01/18 05:08:05;;;;;;;3.15;0.95;;;4.50;99.90;;;;;;4977874;28;20119;-96
2021/01/18 05:10:32;;;;;;;11.90;1.45;;;4.50;99.90;;;;;;4979883;28;20035;-94
2021/01/18 05:13:00;;;;;;;8.30;1.00;;;4.50;99.90;;;;;;4977994;28;20019;-94
2021/01/18 05:15:27;;;;;;;4.28;1.73;;;4.50;99.90;;;;;;4959415;28;20046;-94
2021/01/18 05:18:05;;;;;;;4.43;0.90;;;4.60;99.90;;;;;;4944982;29;20043;-94
2021/01/18 05:20:30;;;;;;;3.92;1.25;;;4.50;99.90;;;;;;4943005;29;20032;-95
2021/01/18 05:22:56;;;;;;;7.47;1.60;;;4.60;99.90;;;;;;4941273;29;20032;-95
2021/01/18 05:25:23;;;;;;;9.80;1.40;;;4.60;99.90;;;;;;4941748;29;20118;-95
2021/01/18 05:28:05;;;;;;;1.70;0.90;;;4.60;99.90;;;;;;4940889;29;20061;-94
2021/01/18 05:30:37;;;;;;;4.70;1.00;;;4.60;99.90;;;;;;4941278;29;20068;-96
2021/01/18 05:33:05;;;;;;;7.72;1.58;;;4.70;99.90;;;;;;4942828;29;20035;-96
2021/01/18 05:35:32;;;;;;;5.25;1.30;;;4.70;99.90;;;;;;4942795;29;20118;-96
2021/01/18 05:38:10;;;;;;;7.53;1.40;;;4.70;99.90;;;;;;4942921;29;20058;-96
2021/01/18 05:40:47;;;;;;;3.33;1.67;;;4.70;99.90;;;;;;4943350;29;20174;-96
2021/01/18 05:43:14;;;;;;;4.30;1.40;;;4.70;99.90;;;;;;4942635;29;20034;-96
2021/01/18 05:45:41;;;;;;;7.07;1.55;;;4.70;99.90;;;;;;4942525;29;20035;-94
2021/01/18 05:48:08;;;;;;;7.15;1.52;;;4.70;99.90;;;;;;4943448;29;20035;-96
2021/01/18 05:50:36;;;;;;;9.52;3.35;;;4.70;99.90;;;;;;4946636;29;20032;-96
2021/01/18 05:53:23;;;;;;;8.45;1.60;;;4.70;99.90;;;;;;4944083;29;20095;-96
2021/01/18 05:55:49;;;;;;;2.97;1.48;;;4.70;99.90;;;;;;4944738;29;20059;-96
2021/01/18 05:58:36;;;;;;;4.15;1.55;;;4.70;99.90;;;;;;4943431;29;20043;-96
2021/01/18 06:01:02;;;;;;;6.38;2.90;;;4.70;99.90;;;;;;4953076;29;20031;-95
2021/01/18 06:03:29;;;;;;;6.45;1.40;;;4.70;99.90;;;;;;4953123;29;20102;-96
2021/01/18 06:05:56;;;;;;;5.13;1.83;;;4.70;99.90;;;;;;4950675;29;20023;-96
2021/01/18 06:08:24;;;;;;;2.08;1.63;;;4.70;99.90;;;;;;4949175;29;20031;-95
2021/01/18 06:11:02;;;;;;;7.47;1.67;;;4.70;99.90;;;;;;4945762;29;20027;-96
2021/01/18 06:13:33;;;;;;;3.17;1.67;;;4.70;99.90;;;;;;4927982;29;20035;-96
2021/01/18 06:16:02;;;;;;;5.68;2.13;;;4.70;99.90;;;;;;4944628;29;20084;-96
2021/01/18 06:18:32;;;;;;;4.78;2.05;;;4.70;99.90;;;;;;4943072;29;20043;-96
2021/01/18 06:21:00;;;;;;;9.18;2.15;;;4.70;99.90;;;;;;4943708;29;20042;-96
2021/01/18 06:23:27;;;;;;;3.53;1.90;;;4.80;99.90;;;;;;4943755;29;20527;-95
2021/01/18 06:25:55;;;;;;;7.88;1.88;;;4.70;99.90;;;;;;4942993;29;20090;-95
2021/01/18 06:28:33;;;;;;;5.45;1.70;;;4.70;99.90;;;;;;4942127;29;20020;-96
2021/01/18 06:31:04;;;;;;;10.25;2.35;;;4.70;99.90;;;;;;4943281;29;20034;-95
2021/01/18 06:33:43;;;;;;;4.40;2.35;;;4.70;99.90;;;;;;4951316;28;20011;-96
2021/01/18 06:36:15;;;;;;;9.20;3.28;;;4.70;99.90;;;;;;4952884;28;20043;-96
2021/01/18 06:38:43;;;;;;;5.57;2.45;;;4.70;99.90;;;;;;4942722;29;20083;-95
2021/01/18 06:41:09;;;;;;;6.05;2.83;;;4.70;99.90;;;;;;4942984;29;20033;-96
2021/01/18 06:43:44;;;;;;;4.25;1.98;;;4.70;99.90;;;;;;4944552;29;20024;-96
2021/01/18 06:46:18;;;;;;;5.32;3.00;;;4.70;99.90;;;;;;4942847;29;20027;-95
2021/01/18 06:48:46;;;;;;;5.32;2.88;;;4.70;99.90;;;;;;4941111;29;20030;-95
2021/01/18 06:51:16;;;;;;;5.30;2.60;;;4.70;99.90;;;;;;4942134;29;20046;-96
2021/01/18 06:53:44;;;;;;;6.07;1.90;;;4.80;99.90;;;;;;4935691;29;20054;-96
2021/01/18 06:56:22;;;;;;;3.85;2.20;;;4.70;99.90;;;;;;4926483;29;20032;-95
2021/01/18 06:59:22;;;;;;;4.82;1.80;;;4.70;99.90;;;;;;4926593;29;20130;-96
2021/01/18 07:02:16;;;;;;;10.13;1.77;;;4.70;99.90;;;;;;4932991;29;20024;-95
2021/01/18 07:04:49;;;;;;;6.07;1.52;;;4.70;99.90;;;;;;4924541;29;20028;-95
2021/01/18 07:07:27;;;;;;;4.97;2.10;;;4.70;99.90;;;;;;4923894;29;20035;-96
2021/01/18 07:10:00;;;;;;;2.75;1.50;;;4.70;99.90;;;;;;4928198;29;20111;-96
2021/01/18 07:12:28;;;;;;;7.55;1.35;;;4.70;99.90;;;;;;4939634;29;20044;-96
2021/01/18 07:15:02;;;;;;;2.38;1.20;;;4.80;99.90;;;;;;4941315;29;20031;-96
2021/01/18 07:17:55;;;;;;;7.57;1.10;;;4.70;99.90;;;;;;4938726;29;20036;-96
2021/01/18 07:20:25;;;;;;;2.45;1.27;;;4.80;99.90;;;;;;4953725;29;20024;-96
2021/01/18 07:23:15;;;;;;;6.63;3.13;;;4.80;99.90;;;;;;4931680;29;20027;-96
2021/01/18 07:25:56;;;;;;;1.60;1.05;;;4.70;99.90;;;;;;4929224;29;20276;-96
2021/01/18 07:28:25;;;;;;;1.83;1.30;;;4.70;99.90;;;;;;4936293;29;20042;-96
2021/01/18 07:30:55;;;;;;;4.38;2.25;;;4.70;99.90;;;;;;4931208;29;20028;-96
2021/01/18 07:33:21;;;;;;;5.97;1.50;;;4.70;99.90;;;;;;4935626;29;20067;-96
2021/01/18 07:35:48;;;;;;;1.98;0.98;;;4.70;99.90;;;;;;4933423;29;20028;-96
2021/01/18 07:38:22;;;;;;;4.55;1.25;;;4.70;99.90;;;;;;4932981;29;20047;-96
2021/01/18 07:41:06;;;;;;;5.50;1.65;;;4.60;99.90;;;;;;4936074;29;20136;-96
2021/01/18 07:43:35;;;;;;;3.33;2.10;;;4.60;99.90;;;;;;4940713;29;20040;-95
2021/01/18 07:46:28;;;;;;;3.95;1.00;;;4.60;99.90;;;;;;4933306;29;20024;-96
2021/01/18 07:48:56;;;;;;;3.50;1.40;;;4.60;99.90;;;;;;4936089;29;20389;-96
2021/01/18 07:51:29;;;;;;;2.78;1.27;;;4.60;99.90;;;;;;4933268;29;20430;-96
2021/01/18 07:53:56;;;;;;;3.85;1.20;;;4.70;99.90;;;;;;4947520;29;20051;-96
2021/01/18 07:56:26;;;;;;;6.22;1.23;;;4.60;99.90;;;;;;4949171;29;20087;-95
2021/01/18 07:59:03;;;;;;;1.00;0.85;;;4.70;99.90;;;;;;4948124;29;20107;-96
2021/01/18 08:01:37;;;;;;;5.53;1.60;;;4.60;99.90;;;;;;4926756;29;20024;-96
2021/01/18 08:04:29;;;;;;;1.48;1.13;;;4.60;99.90;;;;;;4931656;29;20039;-96
2021/01/18 08:07:08;;;;;;;3.25;1.20;;;4.60;99.90;;;;;;4924567;29;20192;-96
2021/01/18 08:09:35;;;;;;;6.10;1.35;;;4.60;99.90;;;;;;4929948;29;20032;-96
2021/01/18 08:12:33;;;;;;;4.00;1.30;;;4.60;99.90;;;;;;4945681;29;20483;-95
2021/01/18 08:15:06;;;;;;;7.63;3.22;;;4.60;99.90;;;;;;4943302;29;20021;-96
2021/01/18 08:17:32;;;;;;;5.05;1.42;;;4.60;99.90;;;;;;4920341;29;20040;-95
2021/01/18 08:20:16;;;;;;;2.42;1.65;;;4.60;99.90;;;;;;4938966;29;20540;-95
2021/01/18 08:22:42;;;;;;;2.95;1.80;;;4.60;99.90;;;;;;4963342;28;20101;-96
2021/01/18 08:25:18;;;;;;;4.95;1.83;;;4.60;99.90;;;;;;4950971;28;20016;-96
2021/01/18 08:27:59;;;;;;;1.92;1.70;;;4.60;99.90;;;;;;4976976;28;20032;-95
2021/01/18 08:30:42;;;;;;;5.07;1.70;;;4.60;99.90;;;;;;4949156;29;20072;-96
2021/01/18 08:33:18;;;;;;;4.50;1.52;;;4.50;99.90;;;;;;4953240;28;20038;-96
2021/01/18 08:35:48;;;;;;;3.40;1.85;;;4.50;99.90;;;;;;4975775;29;20039;-96
2021/01/18 08:38:41;;;;;;;2.40;1.40;;;4.50;99.90;;;;;;4956098;29;20047;-95
2021/01/18 08:41:16;;;;;;;2.38;1.20;;;4.50;99.90;;;;;;4974860;29;20104;-96
2021/01/18 08:44:17;;;;;;;3.47;1.05;;;4.50;99.90;;;;;;4962119;28;20027;-96
2021/01/18 08:49:35;;;;;;;3.08;1.42;;;4.50;99.90;;;;;;5253108;23;20039;-96
2021/01/18 08:52:01;;;;;;;3.00;1.13;;;4.50;99.90;;;;;;4945274;29;20374;-96
2021/01/18 08:54:28;;;;;;;7.38;1.30;;;4.50;99.90;;;;;;4944239;29;20020;-96
2021/01/18 08:57:26;;;;;;;3.90;1.85;;;4.50;99.90;;;;;;4933939;29;20032;-96
2021/01/18 09:00:18;;;;;;;;;;;;;;;;;;;;;
2021/01/18 09:02:48;;;;;;;3.88;1.10;;;4.50;99.90;;;;;;4941490;29;20036;-96
2021/01/18 09:05:16;;;;;;;3.88;0.93;;;4.40;99.90;;;;;;4942166;29;20039;-96
2021/01/18 09:07:55;;;;;;;4.85;1.30;;;4.50;99.90;;;;;;4946087;29;20042;-96
2021/01/18 09:10:24;;;;;;;5.15;0.70;;;4.50;99.90;;;;;;4959181;28;20035;-95
2021/01/18 09:12:50;;;;;;;2.05;0.93;;;4.50;99.90;;;;;;4957231;29;20028;-95
2021/01/18 09:15:18;;;;;;;3.75;0.93;;;4.50;99.90;;;;;;4957528;29;20028;-94
2021/01/18 09:17:45;;;;;;;2.72;0.80;;;4.50;99.90;;;;;;4969033;29;20028;-95
2021/01/18 09:20:14;;;;;;;5.00;0.80;;;4.50;99.90;;;;;;4954098;29;20039;-96
2021/01/18 09:22:41;;;;;;;1.70;0.50;;;4.50;99.90;;;;;;4952162;29;20031;-96
2021/01/18 09:25:09;;;;;;;3.53;0.75;;;4.50;99.90;;;;;;4950983;29;20028;-95
2021/01/18 09:27:40;;;;;;;1.85;0.68;;;4.50;99.90;;;;;;4954900;29;20032;-96
2021/01/18 09:30:17;;;;;;;2.33;0.70;;;4.50;99.90;;;;;;4957127;29;20051;-96
2021/01/18 09:33:01;;;;;;;2.08;0.95;;;4.60;99.90;;;;;;4954033;29;20087;-95
2021/01/18 09:35:31;;;;;;;7.03;1.77;;;4.60;99.90;;;;;;4935133;29;20028;-96
2021/01/18 09:38:02;;;;;;;3.88;0.90;;;4.60;99.90;;;;;;4942339;29;20090;-95
2021/01/18 09:40:28;;;;;;;3.28;0.95;;;4.60;99.90;;;;;;4960313;29;20032;-95
2021/01/18 09:43:05;;;;;;;1.95;0.70;;;4.60;99.90;;;;;;4936483;29;20043;-95
2021/01/18 09:45:36;;;;;;;5.05;1.05;;;4.60;99.90;;;;;;4939553;29;20020;-96
2021/01/18 09:48:11;;;;;;;4.18;0.90;;;4.60;99.90;;;;;;4937343;29;20060;-94
2021/01/18 09:50:44;;;;;;;2.90;1.02;;;4.60;99.90;;;;;;4955467;29;20119;-96
2021/01/18 09:53:10;;;;;;;3.08;0.98;;;4.60;99.90;;;;;;4959616;29;20044;-96
2021/01/18 09:55:46;;;;;;;5.85;1.02;;;4.60;99.90;;;;;;4962584;29;20039;-96
2021/01/18 09:58:18;;;;;;;3.25;1.05;;;4.60;99.90;;;;;;4936287;29;20040;-95
2021/01/18 10:00:47;;;;;;;4.80;1.33;;;4.60;99.90;;;;;;4954300;29;20019;-94
2021/01/18 10:03:27;;;;;;;2.58;1.25;;;4.70;99.90;;;;;;4957443;29;20031;-96
2021/01/18 10:06:09;;;;;;;3.07;1.47;;;4.70;99.90;;;;;;4943273;29;20032;-95
2021/01/18 10:09:06;;;;;;;4.68;1.25;;;4.70;99.90;;;;;;4940056;29;20044;-96
2021/01/18 10:11:50;;;;;;;6.30;0.98;;;4.70;99.90;;;;;;4942343;29;20036;-96
2021/01/18 10:14:27;;;;;;;7.13;0.80;;;4.70;99.90;;;;;;4945025;29;20095;-94
2021/01/18 10:17:25;;;;;;;4.13;1.00;;;4.70;99.90;;;;;;4968859;29;20036;-95
2021/01/18 10:20:08;;;;;;;6.30;1.20;;;4.70;99.90;;;;;;4937983;29;20051;-96
2021/01/18 10:22:37;;;;;;;4.75;1.17;;;4.80;99.90;;;;;;4944331;29;20016;-96
2021/01/18 10:25:12;;;;;;;1.80;1.10;;;4.80;99.90;;;;;;4957226;29;20034;-96
2021/01/18 10:27:56;;;;;;;6.20;1.30;;;4.70;99.90;;;;;;4955017;29;20039;-96
2021/01/18 10:30:30;;;;;;;4.15;0.90;;;4.80;99.90;;;;;;4954269;29;20103;-95
2021/01/18 10:32:58;;;;;;;4.93;1.00;;;4.80;99.90;;;;;;4942042;29;20031;-95
2021/01/18 10:35:31;;;;;;;4.35;1.17;;;4.80;99.90;;;;;;4937258;29;20030;-95
2021/01/18 10:38:20;;;;;;;3.63;1.35;;;4.80;99.90;;;;;;4937953;29;20044;-94
2021/01/18 10:41:08;;;;;;;3.60;1.10;;;4.80;99.90;;;;;;4971692;29;20031;-95
2021/01/18 10:43:41;;;;;;;2.45;1.20;;;4.80;99.90;;;;;;4953724;29;20043;-95
2021/01/18 10:49:35;;;;;;;7.13;1.75;;;4.90;99.90;;;;;;4985922;23;20119;-96
2021/01/18 10:52:11;;;;;;;4.93;1.10;;;4.90;99.90;;;;;;4903062;29;20096;-95
2021/01/18 10:55:06;;;;;;;5.43;1.10;;;4.90;99.90;;;;;;4927293;29;20025;-96
2021/01/18 11:03:03;;;;;;;1.88;0.68;;;5.00;99.90;;;;;;5038667;23;20071;-94
2021/01/18 11:05:40;;;;;;;6.63;1.08;;;5.00;99.90;;;;;;4915016;29;20033;-96
2021/01/18 11:08:13;;;;;;;5.32;1.10;;;5.00;99.90;;;;;;4904336;29;20068;-95
2021/01/18 11:11:15;;;;;;;3.30;0.80;;;5.00;99.90;;;;;;4919362;29;20040;-96
2021/01/18 11:13:46;;;;;;;14.43;4.28;;;5.00;99.90;;;;;;4917651;29;20049;-95
2021/01/18 11:16:15;;;;;;;9.63;3.00;;;5.00;99.90;;;;;;4898977;29;20044;-95
2021/01/18 11:19:04;;;;;;;12.63;2.05;;;5.10;99.90;;;;;;4904750;29;20103;-96
2021/01/18 11:21:33;;;;;;;8.13;1.20;;;5.10;99.90;;;;;;4909655;29;20036;-96
2021/01/18 11:24:13;;;;;;;3.13;0.80;;;5.10;99.90;;;;;;4912296;29;20032;-95
2021/01/18 11:33:28;;;;;;;1.83;0.90;;;5.10;99.90;;;;;;4861686;29;20074;-96
2021/01/18 11:35:56;;;;;;;4.82;0.70;;;5.10;99.90;;;;;;4858571;29;20065;-95
2021/01/18 11:38:24;;;;;;;5.72;1.00;;;5.10;99.90;;;;;;4837904;29;20061;-96
2021/01/18 11:43:26;;;;;;;2.83;0.70;;;5.10;99.90;;;;;;5271996;23;20064;-96
2021/01/18 11:45:52;;;;;;;4.15;0.95;;;5.10;99.90;;;;;;4903884;29;20052;-96
2021/01/18 11:48:18;;;;;;;0.70;0.50;;;5.10;99.90;;;;;;4912912;29;20040;-95
2021/01/18 11:50:44;;;;;;;2.63;0.70;;;5.20;99.90;;;;;;4914687;29;20036;-96
2021/01/18 11:53:11;;;;;;;5.10;1.55;;;5.10;99.90;;;;;;4908141;29;20040;-95
2021/01/18 11:55:38;;;;;;;3.15;0.80;;;5.10;99.90;;;;;;4909420;29;20025;-96
2021/01/18 11:58:04;;;;;;;4.07;1.00;;;5.20;99.90;;;;;;4902674;29;20037;-96
2021/01/18 12:00:33;;;;;;;3.15;1.00;;;5.20;99.90;;;;;;4901893;29;20100;-95
2021/01/18 12:03:00;;;;;;;3.03;0.80;;;5.20;99.90;;;;;;4915783;29;20120;-95
2021/01/18 12:05:27;;;;;;;6.75;0.80;;;5.20;99.90;;;;;;4896717;29;20047;-96
2021/01/18 12:07:54;;;;;;;3.13;0.52;;;5.20;99.90;;;;;;4914895;29;20033;-96
2021/01/18 12:10:23;;;;;;;2.35;0.70;;;5.20;99.90;;;;;;4894895;29;20024;-95
2021/01/18 12:12:49;;;;;;;2.25;0.90;;;5.20;99.90;;;;;;4916779;29;20040;-95
2021/01/18 12:15:21;;;;;;;3.67;1.10;;;5.20;99.90;;;;;;4895481;29;20051;-96
2021/01/18 12:17:52;;;;;;;5.88;0.77;;;5.20;99.90;;;;;;4897826;29;20037;-95
2021/01/18 12:20:23;;;;;;;5.97;1.38;;;5.30;99.90;;;;;;4905274;29;20033;-95
2021/01/18 12:22:55;;;;;;;;;;;5.20;99.90;;;;;;4898627;29;20025;-95
2021/01/18 12:25:24;;;;;;;2.95;0.80;;;5.20;99.90;;;;;;4908760;29;19998;-96
2021/01/18 12:27:56;;;;;;;3.80;1.20;;;5.30;99.90;;;;;;4893648;29;20028;-95
2021/01/18 12:30:26;;;;;;;4.05;1.20;;;5.30;99.90;;;;;;4915095;29;20088;-94
2021/01/18 12:33:00;;;;;;;2.28;0.90;;;5.30;99.90;;;;;;4891644;29;20031;-94
2021/01/18 12:35:43;;;;;;;6.53;1.20;;;5.30;99.90;;;;;;4917764;29;20029;-96
2021/01/18 12:38:14;;;;;;;3.63;1.10;;;5.30;99.90;;;;;;4918467;29;20052;-96
2021/01/18 12:40:55;;;;;;;1.70;0.77;;;5.30;99.90;;;;;;4906786;29;20037;-96
2021/01/18 12:43:27;;;;;;;7.57;1.20;;;5.40;99.90;;;;;;4917502;29;20056;-96
2021/01/18 12:45:56;;;;;;;3.40;1.20;;;5.40;99.90;;;;;;4916772;29;20032;-96
2021/01/18 12:48:31;;;;;;;7.53;1.25;;;5.50;99.90;;;;;;4919261;29;20502;-96
2021/01/18 12:51:21;;;;;;;8.32;1.40;;;5.50;99.90;;;;;;4906153;29;20056;-96
2021/01/18 12:53:47;;;;;;;2.35;0.85;;;5.50;99.90;;;;;;4925569;29;20077;-96
2021/01/18 12:56:25;;;;;;;6.93;1.45;;;5.60;99.90;;;;;;4978199;23;20058;-96
2021/01/18 12:58:56;;;;;;;8.48;1.90;;;5.60;99.90;;;;;;4926254;29;20056;-95
2021/01/18 13:01:31;;;;;;;4.25;1.30;;;5.60;99.90;;;;;;4942036;29;20024;-95
2021/01/18 13:03:57;;;;;;;3.28;1.10;;;5.60;99.90;;;;;;4912475;29;20462;-95
2021/01/18 13:06:46;;;;;;;8.77;1.10;;;5.60;99.90;;;;;;4913191;29;20032;-96
2021/01/18 13:09:14;;;;;;;10.65;1.38;;;5.60;99.90;;;;;;4920006;29;20016;-96
2021/01/18 13:11:47;;;;;;;6.85;1.15;;;5.60;99.90;;;;;;4920096;29;20024;-95
2021/01/18 13:14:16;;;;;;;3.17;1.05;;;5.60;99.90;;;;;;4921292;29;20025;-95
2021/01/18 13:16:44;;;;;;;3.55;1.02;;;5.60;99.90;;;;;;4919506;29;20107;-96
2021/01/18 13:19:11;;;;;;;3.78;0.80;;;5.60;99.90;;;;;;4936740;29;20036;-96
2021/01/18 13:21:37;;;;;;;4.15;1.10;;;5.70;99.90;;;;;;4936898;29;20028;-96
2021/01/18 13:24:05;;;;;;;4.35;1.02;;;5.80;99.90;;;;;;4936413;29;20056;-95
2021/01/18 13:26:50;;;;;;;5.70;0.85;;;5.90;99.90;;;;;;4904079;29;20024;-95
2021/01/18 13:29:17;;;;;;;2.10;0.80;;;6.20;99.90;;;;;;4932520;29;20055;-96
2021/01/18 13:31:48;;;;;;;8.60;1.20;;;6.60;99.90;;;;;;4903416;29;20020;-95
2021/01/18 13:34:14;;;;;;;5.78;1.00;;;7.00;99.90;;;;;;4926674;29;20032;-95
2021/01/18 13:36:40;;;;;;;3.92;0.80;;;7.20;99.90;;;;;;4930332;29;20024;-95
2021/01/18 13:39:07;;;;;;;5.78;1.30;;;7.30;99.90;;;;;;4909540;29;20380;-95
2021/01/18 13:41:34;;;;;;;13.27;2.40;;;7.40;99.90;;;;;;4911720;29;20027;-96
2021/01/18 13:44:00;;;;;;;8.13;1.08;;;7.50;99.90;;;;;;4893734;29;20483;-94
2021/01/18 13:46:27;;;;;;;4.28;1.00;;;7.50;99.90;;;;;;4902402;29;20039;-96